sensor_id;sensor_type;location;lat;lon;timestamp;P1;durP1;ratioP1;P2;durP2;ratioP2
56537;SDS011;42435;53.292;6.000;2022-07-22T00:01:28;3.30;;;0.93;;
56537;SDS011;42435;53.292;6.000;2022-07-22T00:03:53;3.30;;;1.20;;
56537;SDS011;42435;53.292;6.000;2022-07-22T00:06:19;6.00;;;1.38;;
56537;SDS011;42435;53.292;6.000;2022-07-22T00:08:45;3.53;;;1.75;;
56537;SDS011;42435;53.292;6.000;2022-07-22T00:11:10;6.07;;;0.95;;
56537;SDS011;42435;53.292;6.000;2022-07-22T00:13:36;5.68;;;1.42;;
56537;SDS011;42435;53.292;6.000;2022-07-22T00:16:01;4.00;;;0.90;;
56537;SDS011;42435;53.292;6.000;2022-07-22T00:18:27;9.60;;;1.52;;
56537;SDS011;42435;53.292;6.000;2022-07-22T00:20:54;2.25;;;1.20;;
56537;SDS011;42435;53.292;6.000;2022-07-22T00:23:20;4.45;;;1.25;;
56537;SDS011;42435;53.292;6.000;2022-07-22T00:25:46;4.25;;;1.17;;
56537;SDS011;42435;53.292;6.000;2022-07-22T00:28:11;2.63;;;0.93;;
56537;SDS011;42435;53.292;6.000;2022-07-22T00:30:37;5.55;;;1.25;;
56537;SDS011;42435;53.292;6.000;2022-07-22T00:33:03;2.70;;;1.15;;
56537;SDS011;42435;53.292;6.000;2022-07-22T00:35:28;2.72;;;0.93;;
56537;SDS011;42435;53.292;6.000;2022-07-22T00:37:54;4.72;;;1.00;;
56537;SDS011;42435;53.292;6.000;2022-07-22T00:40:20;4.65;;;0.98;;
56537;SDS011;42435;53.292;6.000;2022-07-22T00:42:45;3.05;;;1.02;;
56537;SDS011;42435;53.292;6.000;2022-07-22T00:45:12;4.10;;;1.10;;
56537;SDS011;42435;53.292;6.000;2022-07-22T00:47:37;4.15;;;1.30;;
56537;SDS011;42435;53.292;6.000;2022-07-22T00:50:06;4.00;;;1.10;;
56537;SDS011;42435;53.292;6.000;2022-07-22T00:52:32;3.55;;;0.88;;
56537;SDS011;42435;53.292;6.000;2022-07-22T00:54:59;2.95;;;1.10;;
56537;SDS011;42435;53.292;6.000;2022-07-22T00:57:26;2.97;;;0.65;;
56537;SDS011;42435;53.292;6.000;2022-07-22T00:59:52;7.82;;;0.82;;
56537;SDS011;42435;53.292;6.000;2022-07-22T01:02:20;5.72;;;1.08;;
56537;SDS011;42435;53.292;6.000;2022-07-22T01:04:49;3.75;;;1.20;;
56537;SDS011;42435;53.292;6.000;2022-07-22T01:07:14;5.03;;;1.13;;
56537;SDS011;42435;53.292;6.000;2022-07-22T01:09:44;3.90;;;0.75;;
56537;SDS011;42435;53.292;6.000;2022-07-22T01:12:10;3.78;;;0.98;;
56537;SDS011;42435;53.292;6.000;2022-07-22T01:14:36;2.30;;;1.45;;
56537;SDS011;42435;53.292;6.000;2022-07-22T01:17:02;2.92;;;0.90;;
56537;SDS011;42435;53.292;6.000;2022-07-22T01:19:28;1.63;;;0.70;;
56537;SDS011;42435;53.292;6.000;2022-07-22T01:21:54;3.28;;;0.80;;
56537;SDS011;42435;53.292;6.000;2022-07-22T01:24:19;4.05;;;1.27;;
56537;SDS011;42435;53.292;6.000;2022-07-22T01:26:45;4.65;;;1.30;;
56537;SDS011;42435;53.292;6.000;2022-07-22T01:29:19;2.25;;;0.90;;
56537;SDS011;42435;53.292;6.000;2022-07-22T01:31:45;6.20;;;1.00;;
56537;SDS011;42435;53.292;6.000;2022-07-22T01:34:11;2.80;;;1.10;;
56537;SDS011;42435;53.292;6.000;2022-07-22T01:36:36;4.45;;;0.90;;
56537;SDS011;42435;53.292;6.000;2022-07-22T01:39:02;6.57;;;0.98;;
56537;SDS011;42435;53.292;6.000;2022-07-22T01:41:28;2.83;;;0.98;;
56537;SDS011;42435;53.292;6.000;2022-07-22T01:43:54;4.40;;;0.90;;
56537;SDS011;42435;53.292;6.000;2022-07-22T01:46:19;3.17;;;0.65;;
56537;SDS011;42435;53.292;6.000;2022-07-22T01:48:45;2.28;;;0.80;;
56537;SDS011;42435;53.292;6.000;2022-07-22T01:51:11;2.78;;;1.05;;
56537;SDS011;42435;53.292;6.000;2022-07-22T01:53:36;7.32;;;1.20;;
56537;SDS011;42435;53.292;6.000;2022-07-22T01:56:02;3.67;;;1.08;;
56537;SDS011;42435;53.292;6.000;2022-07-22T01:58:28;3.03;;;0.90;;
56537;SDS011;42435;53.292;6.000;2022-07-22T02:00:53;3.75;;;0.80;;
56537;SDS011;42435;53.292;6.000;2022-07-22T02:03:19;4.05;;;0.90;;
56537;SDS011;42435;53.292;6.000;2022-07-22T02:05:45;6.20;;;1.25;;
56537;SDS011;42435;53.292;6.000;2022-07-22T02:08:10;3.88;;;1.25;;
56537;SDS011;42435;53.292;6.000;2022-07-22T02:10:37;3.10;;;0.90;;
56537;SDS011;42435;53.292;6.000;2022-07-22T02:13:03;4.32;;;1.00;;
56537;SDS011;42435;53.292;6.000;2022-07-22T02:15:29;4.32;;;1.77;;
56537;SDS011;42435;53.292;6.000;2022-07-22T02:17:55;3.95;;;0.90;;
56537;SDS011;42435;53.292;6.000;2022-07-22T02:20:21;3.75;;;0.82;;
56537;SDS011;42435;53.292;6.000;2022-07-22T02:22:47;2.28;;;0.80;;
56537;SDS011;42435;53.292;6.000;2022-07-22T02:25:15;3.50;;;1.00;;
56537;SDS011;42435;53.292;6.000;2022-07-22T02:27:41;3.75;;;0.77;;
56537;SDS011;42435;53.292;6.000;2022-07-22T02:30:07;4.18;;;1.20;;
56537;SDS011;42435;53.292;6.000;2022-07-22T02:32:34;1.90;;;0.70;;
56537;SDS011;42435;53.292;6.000;2022-07-22T02:35:00;4.00;;;1.33;;
56537;SDS011;42435;53.292;6.000;2022-07-22T02:37:27;9.13;;;1.35;;
56537;SDS011;42435;53.292;6.000;2022-07-22T02:39:52;3.80;;;0.82;;
56537;SDS011;42435;53.292;6.000;2022-07-22T02:42:18;2.78;;;0.95;;
56537;SDS011;42435;53.292;6.000;2022-07-22T02:44:46;3.13;;;1.00;;
56537;SDS011;42435;53.292;6.000;2022-07-22T02:47:12;1.60;;;0.63;;
56537;SDS011;42435;53.292;6.000;2022-07-22T02:49:38;3.95;;;0.90;;
56537;SDS011;42435;53.292;6.000;2022-07-22T02:52:06;3.97;;;1.92;;
56537;SDS011;42435;53.292;6.000;2022-07-22T02:54:31;3.03;;;1.23;;
56537;SDS011;42435;53.292;6.000;2022-07-22T02:57:01;3.00;;;0.70;;
56537;SDS011;42435;53.292;6.000;2022-07-22T02:59:26;4.63;;;1.05;;
56537;SDS011;42435;53.292;6.000;2022-07-22T03:01:52;3.25;;;1.13;;
56537;SDS011;42435;53.292;6.000;2022-07-22T03:04:18;0.75;;;0.60;;
56537;SDS011;42435;53.292;6.000;2022-07-22T03:06:43;2.70;;;0.70;;
56537;SDS011;42435;53.292;6.000;2022-07-22T03:09:09;1.92;;;0.70;;
56537;SDS011;42435;53.292;6.000;2022-07-22T03:11:34;1.10;;;0.65;;
56537;SDS011;42435;53.292;6.000;2022-07-22T03:14:03;2.63;;;1.10;;
56537;SDS011;42435;53.292;6.000;2022-07-22T03:16:29;3.33;;;1.00;;
56537;SDS011;42435;53.292;6.000;2022-07-22T03:18:54;1.98;;;0.98;;
56537;SDS011;42435;53.292;6.000;2022-07-22T03:21:22;2.05;;;1.20;;
56537;SDS011;42435;53.292;6.000;2022-07-22T03:23:48;3.05;;;0.93;;
56537;SDS011;42435;53.292;6.000;2022-07-22T03:26:18;4.60;;;1.05;;
56537;SDS011;42435;53.292;6.000;2022-07-22T03:28:48;8.18;;;1.55;;
56537;SDS011;42435;53.292;6.000;2022-07-22T03:31:14;1.02;;;0.73;;
56537;SDS011;42435;53.292;6.000;2022-07-22T03:33:40;6.25;;;0.90;;
56537;SDS011;42435;53.292;6.000;2022-07-22T03:36:06;4.35;;;1.17;;
56537;SDS011;42435;53.292;6.000;2022-07-22T03:38:33;4.28;;;0.95;;
56537;SDS011;42435;53.292;6.000;2022-07-22T03:40:59;1.98;;;1.00;;
56537;SDS011;42435;53.292;6.000;2022-07-22T03:43:25;1.33;;;0.75;;
56537;SDS011;42435;53.292;6.000;2022-07-22T03:45:50;8.32;;;0.93;;
56537;SDS011;42435;53.292;6.000;2022-07-22T03:48:16;3.30;;;0.98;;
56537;SDS011;42435;53.292;6.000;2022-07-22T03:50:41;3.25;;;0.93;;
56537;SDS011;42435;53.292;6.000;2022-07-22T03:53:07;3.17;;;0.70;;
56537;SDS011;42435;53.292;6.000;2022-07-22T03:55:32;1.55;;;0.93;;
56537;SDS011;42435;53.292;6.000;2022-07-22T03:57:58;5.78;;;1.55;;
56537;SDS011;42435;53.292;6.000;2022-07-22T04:00:24;1.35;;;0.70;;
56537;SDS011;42435;53.292;6.000;2022-07-22T04:02:49;4.03;;;0.93;;
56537;SDS011;42435;53.292;6.000;2022-07-22T04:05:15;1.10;;;0.75;;
56537;SDS011;42435;53.292;6.000;2022-07-22T04:07:41;3.25;;;1.02;;
56537;SDS011;42435;53.292;6.000;2022-07-22T04:10:07;3.92;;;1.33;;
56537;SDS011;42435;53.292;6.000;2022-07-22T04:12:36;2.25;;;1.27;;
56537;SDS011;42435;53.292;6.000;2022-07-22T04:15:04;7.07;;;1.25;;
56537;SDS011;42435;53.292;6.000;2022-07-22T04:17:30;5.15;;;1.70;;
56537;SDS011;42435;53.292;6.000;2022-07-22T04:19:56;4.90;;;1.58;;
56537;SDS011;42435;53.292;6.000;2022-07-22T04:22:22;2.72;;;1.20;;
56537;SDS011;42435;53.292;6.000;2022-07-22T04:24:51;2.92;;;1.30;;
56537;SDS011;42435;53.292;6.000;2022-07-22T04:27:17;3.78;;;1.30;;
56537;SDS011;42435;53.292;6.000;2022-07-22T04:29:43;2.90;;;0.98;;
56537;SDS011;42435;53.292;6.000;2022-07-22T04:32:11;2.30;;;0.70;;
56537;SDS011;42435;53.292;6.000;2022-07-22T04:34:36;4.00;;;1.40;;
56537;SDS011;42435;53.292;6.000;2022-07-22T04:37:02;1.70;;;0.80;;
56537;SDS011;42435;53.292;6.000;2022-07-22T04:39:28;3.50;;;1.00;;
56537;SDS011;42435;53.292;6.000;2022-07-22T04:41:54;2.80;;;1.50;;
56537;SDS011;42435;53.292;6.000;2022-07-22T04:44:20;2.97;;;0.80;;
56537;SDS011;42435;53.292;6.000;2022-07-22T04:46:46;1.98;;;0.70;;
56537;SDS011;42435;53.292;6.000;2022-07-22T04:49:12;2.35;;;0.73;;
56537;SDS011;42435;53.292;6.000;2022-07-22T04:51:38;2.90;;;0.80;;
56537;SDS011;42435;53.292;6.000;2022-07-22T04:54:06;2.83;;;1.58;;
56537;SDS011;42435;53.292;6.000;2022-07-22T04:56:32;4.30;;;0.77;;
56537;SDS011;42435;53.292;6.000;2022-07-22T04:59:00;2.33;;;1.20;;
56537;SDS011;42435;53.292;6.000;2022-07-22T05:01:26;2.25;;;0.65;;
56537;SDS011;42435;53.292;6.000;2022-07-22T05:03:51;1.17;;;0.55;;
56537;SDS011;42435;53.292;6.000;2022-07-22T05:06:17;4.15;;;0.93;;
56537;SDS011;42435;53.292;6.000;2022-07-22T05:08:43;2.95;;;0.70;;
56537;SDS011;42435;53.292;6.000;2022-07-22T05:11:09;2.47;;;0.82;;
56537;SDS011;42435;53.292;6.000;2022-07-22T05:13:37;1.65;;;0.65;;
56537;SDS011;42435;53.292;6.000;2022-07-22T05:16:03;2.00;;;0.77;;
56537;SDS011;42435;53.292;6.000;2022-07-22T05:18:31;2.13;;;0.60;;
56537;SDS011;42435;53.292;6.000;2022-07-22T05:21:00;3.50;;;1.00;;
56537;SDS011;42435;53.292;6.000;2022-07-22T05:23:26;1.77;;;0.45;;
56537;SDS011;42435;53.292;6.000;2022-07-22T05:25:58;5.63;;;1.00;;
56537;SDS011;42435;53.292;6.000;2022-07-22T05:28:23;1.42;;;0.70;;
56537;SDS011;42435;53.292;6.000;2022-07-22T05:30:49;3.97;;;1.75;;
56537;SDS011;42435;53.292;6.000;2022-07-22T05:33:15;3.15;;;1.15;;
56537;SDS011;42435;53.292;6.000;2022-07-22T05:35:41;2.97;;;0.85;;
56537;SDS011;42435;53.292;6.000;2022-07-22T05:38:06;3.55;;;1.30;;
56537;SDS011;42435;53.292;6.000;2022-07-22T05:40:32;2.72;;;0.80;;
56537;SDS011;42435;53.292;6.000;2022-07-22T05:42:58;3.95;;;0.98;;
56537;SDS011;42435;53.292;6.000;2022-07-22T05:45:23;2.67;;;1.13;;
56537;SDS011;42435;53.292;6.000;2022-07-22T05:47:52;1.30;;;0.90;;
56537;SDS011;42435;53.292;6.000;2022-07-22T05:50:17;0.98;;;0.65;;
56537;SDS011;42435;53.292;6.000;2022-07-22T05:52:43;1.38;;;0.70;;
56537;SDS011;42435;53.292;6.000;2022-07-22T05:55:08;2.00;;;0.70;;
56537;SDS011;42435;53.292;6.000;2022-07-22T05:57:35;4.50;;;0.85;;
56537;SDS011;42435;53.292;6.000;2022-07-22T06:00:04;2.25;;;0.88;;
56537;SDS011;42435;53.292;6.000;2022-07-22T06:02:31;4.57;;;1.50;;
56537;SDS011;42435;53.292;6.000;2022-07-22T06:04:57;4.22;;;0.70;;
56537;SDS011;42435;53.292;6.000;2022-07-22T06:07:23;2.30;;;1.00;;
56537;SDS011;42435;53.292;6.000;2022-07-22T06:09:51;5.00;;;1.40;;
56537;SDS011;42435;53.292;6.000;2022-07-22T06:12:17;6.03;;;1.38;;
56537;SDS011;42435;53.292;6.000;2022-07-22T06:14:48;1.33;;;0.75;;
56537;SDS011;42435;53.292;6.000;2022-07-22T06:17:13;2.83;;;0.75;;
56537;SDS011;42435;53.292;6.000;2022-07-22T06:19:39;1.10;;;0.82;;
56537;SDS011;42435;53.292;6.000;2022-07-22T06:22:07;2.50;;;0.90;;
56537;SDS011;42435;53.292;6.000;2022-07-22T06:24:34;1.67;;;0.70;;
56537;SDS011;42435;53.292;6.000;2022-07-22T06:27:02;3.53;;;1.30;;
56537;SDS011;42435;53.292;6.000;2022-07-22T06:29:28;1.60;;;0.93;;
56537;SDS011;42435;53.292;6.000;2022-07-22T06:31:54;2.40;;;1.00;;
56537;SDS011;42435;53.292;6.000;2022-07-22T06:34:20;2.47;;;0.80;;
56537;SDS011;42435;53.292;6.000;2022-07-22T06:36:48;3.20;;;0.85;;
56537;SDS011;42435;53.292;6.000;2022-07-22T06:39:16;1.10;;;0.55;;
56537;SDS011;42435;53.292;6.000;2022-07-22T06:41:42;5.05;;;1.10;;
56537;SDS011;42435;53.292;6.000;2022-07-22T06:44:07;2.40;;;0.60;;
56537;SDS011;42435;53.292;6.000;2022-07-22T06:46:33;2.50;;;0.80;;
56537;SDS011;42435;53.292;6.000;2022-07-22T06:48:58;8.02;;;0.85;;
56537;SDS011;42435;53.292;6.000;2022-07-22T06:51:24;2.63;;;1.10;;
56537;SDS011;42435;53.292;6.000;2022-07-22T06:53:50;2.15;;;0.65;;
56537;SDS011;42435;53.292;6.000;2022-07-22T06:56:15;2.83;;;0.82;;
56537;SDS011;42435;53.292;6.000;2022-07-22T06:58:41;1.98;;;0.88;;
56537;SDS011;42435;53.292;6.000;2022-07-22T07:01:07;3.75;;;0.80;;
56537;SDS011;42435;53.292;6.000;2022-07-22T07:03:32;5.00;;;0.60;;
56537;SDS011;42435;53.292;6.000;2022-07-22T07:05:59;2.60;;;0.60;;
56537;SDS011;42435;53.292;6.000;2022-07-22T07:08:24;1.65;;;0.65;;
56537;SDS011;42435;53.292;6.000;2022-07-22T07:10:50;4.82;;;0.52;;
56537;SDS011;42435;53.292;6.000;2022-07-22T07:13:16;3.85;;;0.70;;
56537;SDS011;42435;53.292;6.000;2022-07-22T07:15:41;1.27;;;0.40;;
56537;SDS011;42435;53.292;6.000;2022-07-22T07:18:07;3.50;;;0.50;;
56537;SDS011;42435;53.292;6.000;2022-07-22T07:20:32;1.35;;;0.60;;
56537;SDS011;42435;53.292;6.000;2022-07-22T07:26:10;3.05;;;0.80;;
56537;SDS011;42435;53.292;6.000;2022-07-22T07:31:34;2.22;;;0.47;;
56537;SDS011;42435;53.292;6.000;2022-07-22T07:34:03;1.60;;;0.32;;
56537;SDS011;42435;53.292;6.000;2022-07-22T07:36:35;1.08;;;0.30;;
56537;SDS011;42435;53.292;6.000;2022-07-22T07:39:14;2.55;;;0.60;;
56537;SDS011;42435;53.292;6.000;2022-07-22T07:41:46;2.05;;;0.38;;
56537;SDS011;42435;53.292;6.000;2022-07-22T07:44:29;1.55;;;0.25;;
56537;SDS011;42435;53.292;6.000;2022-07-22T07:47:23;4.28;;;1.02;;
56537;SDS011;42435;53.292;6.000;2022-07-22T07:49:54;0.43;;;0.20;;
56537;SDS011;42435;53.292;6.000;2022-07-22T07:52:30;3.67;;;0.63;;
56537;SDS011;42435;53.292;6.000;2022-07-22T07:55:15;1.58;;;0.20;;
56537;SDS011;42435;53.292;6.000;2022-07-22T07:57:49;1.90;;;0.50;;
56537;SDS011;42435;53.292;6.000;2022-07-22T08:00:30;3.40;;;0.50;;
56537;SDS011;42435;53.292;6.000;2022-07-22T08:05:45;1.75;;;0.20;;
56537;SDS011;42435;53.292;6.000;2022-07-22T08:08:17;0.85;;;0.30;;
56537;SDS011;42435;53.292;6.000;2022-07-22T08:10:45;1.50;;;0.30;;
56537;SDS011;42435;53.292;6.000;2022-07-22T08:13:11;1.20;;;0.57;;
56537;SDS011;42435;53.292;6.000;2022-07-22T08:15:37;1.20;;;0.20;;
56537;SDS011;42435;53.292;6.000;2022-07-22T08:18:03;1.40;;;0.15;;
56537;SDS011;42435;53.292;6.000;2022-07-22T08:20:29;0.45;;;0.10;;
56537;SDS011;42435;53.292;6.000;2022-07-22T08:22:56;1.17;;;0.17;;
56537;SDS011;42435;53.292;6.000;2022-07-22T08:25:22;0.17;;;0.10;;
56537;SDS011;42435;53.292;6.000;2022-07-22T08:31:03;0.60;;;0.50;;
56537;SDS011;42435;53.292;6.000;2022-07-22T08:36:09;5.93;;;0.57;;
56537;SDS011;42435;53.292;6.000;2022-07-22T08:38:37;0.85;;;0.43;;
56537;SDS011;42435;53.292;6.000;2022-07-22T08:41:03;2.58;;;0.50;;
56537;SDS011;42435;53.292;6.000;2022-07-22T08:43:34;1.95;;;0.45;;
56537;SDS011;42435;53.292;6.000;2022-07-22T08:46:01;2.78;;;0.30;;
56537;SDS011;42435;53.292;6.000;2022-07-22T08:48:26;0.90;;;0.40;;
56537;SDS011;42435;53.292;6.000;2022-07-22T08:50:55;1.63;;;0.77;;
56537;SDS011;42435;53.292;6.000;2022-07-22T08:53:25;2.10;;;0.57;;
56537;SDS011;42435;53.292;6.000;2022-07-22T08:55:54;1.60;;;0.60;;
56537;SDS011;42435;53.292;6.000;2022-07-22T08:58:46;2.35;;;0.45;;
56537;SDS011;42435;53.292;6.000;2022-07-22T09:01:13;1.77;;;0.65;;
56537;SDS011;42435;53.292;6.000;2022-07-22T09:06:42;2.47;;;0.35;;
56537;SDS011;42435;53.292;6.000;2022-07-22T09:09:25;0.63;;;0.30;;
56537;SDS011;42435;53.292;6.000;2022-07-22T09:12:06;1.38;;;0.22;;
56537;SDS011;42435;53.292;6.000;2022-07-22T09:14:50;1.77;;;0.35;;
56537;SDS011;42435;53.292;6.000;2022-07-22T09:20:26;0.68;;;0.20;;
56537;SDS011;42435;53.292;6.000;2022-07-22T09:22:58;1.08;;;0.50;;
56537;SDS011;42435;53.292;6.000;2022-07-22T09:25:28;3.05;;;0.20;;
56537;SDS011;42435;53.292;6.000;2022-07-22T09:28:14;0.30;;;0.10;;
56537;SDS011;42435;53.292;6.000;2022-07-22T09:33:22;1.60;;;0.20;;
56537;SDS011;42435;53.292;6.000;2022-07-22T09:36:01;0.63;;;0.20;;
56537;SDS011;42435;53.292;6.000;2022-07-22T09:38:42;0.20;;;0.20;;
56537;SDS011;42435;53.292;6.000;2022-07-22T09:41:23;0.75;;;0.28;;
56537;SDS011;42435;53.292;6.000;2022-07-22T09:44:19;1.25;;;0.45;;
56537;SDS011;42435;53.292;6.000;2022-07-22T09:50:03;0.50;;;0.40;;
56537;SDS011;42435;53.292;6.000;2022-07-22T09:52:38;0.20;;;0.10;;
56537;SDS011;42435;53.292;6.000;2022-07-22T09:55:06;0.88;;;0.20;;
56537;SDS011;42435;53.292;6.000;2022-07-22T09:57:36;2.25;;;0.30;;
56537;SDS011;42435;53.292;6.000;2022-07-22T10:00:03;1.35;;;0.30;;
56537;SDS011;42435;53.292;6.000;2022-07-22T10:02:40;1.23;;;0.30;;
56537;SDS011;42435;53.292;6.000;2022-07-22T10:05:33;1.35;;;0.30;;
56537;SDS011;42435;53.292;6.000;2022-07-22T10:08:19;0.50;;;0.10;;
56537;SDS011;42435;53.292;6.000;2022-07-22T10:11:04;1.20;;;0.30;;
56537;SDS011;42435;53.292;6.000;2022-07-22T10:13:37;0.50;;;0.20;;
56537;SDS011;42435;53.292;6.000;2022-07-22T10:16:14;1.00;;;0.20;;
56537;SDS011;42435;53.292;6.000;2022-07-22T10:19:09;1.95;;;0.30;;
56537;SDS011;42435;53.292;6.000;2022-07-22T10:21:44;1.55;;;0.20;;
56537;SDS011;42435;53.292;6.000;2022-07-22T10:24:13;0.10;;;0.10;;
56537;SDS011;42435;53.292;6.000;2022-07-22T10:26:58;3.28;;;0.30;;
56537;SDS011;42435;53.292;6.000;2022-07-22T10:29:37;1.15;;;0.30;;
56537;SDS011;42435;53.292;6.000;2022-07-22T10:32:27;2.08;;;0.10;;
56537;SDS011;42435;53.292;6.000;2022-07-22T10:40:28;1.15;;;0.20;;
56537;SDS011;42435;53.292;6.000;2022-07-22T10:49:21;1.27;;;0.90;;
56537;SDS011;42435;53.292;6.000;2022-07-22T10:52:10;0.63;;;0.30;;
56537;SDS011;42435;53.292;6.000;2022-07-22T10:57:43;1.38;;;0.30;;
56537;SDS011;42435;53.292;6.000;2022-07-22T11:00:13;4.45;;;0.40;;
56537;SDS011;42435;53.292;6.000;2022-07-22T11:02:48;1.42;;;0.40;;
56537;SDS011;42435;53.292;6.000;2022-07-22T11:05:24;1.15;;;0.38;;
56537;SDS011;42435;53.292;6.000;2022-07-22T11:08:08;1.73;;;0.45;;
56537;SDS011;42435;53.292;6.000;2022-07-22T11:10:46;1.05;;;0.28;;
56537;SDS011;42435;53.292;6.000;2022-07-22T11:13:33;1.10;;;0.52;;
56537;SDS011;42435;53.292;6.000;2022-07-22T11:18:52;0.68;;;0.30;;
56537;SDS011;42435;53.292;6.000;2022-07-22T11:21:28;4.07;;;0.50;;
56537;SDS011;42435;53.292;6.000;2022-07-22T11:23:58;0.68;;;0.60;;
56537;SDS011;42435;53.292;6.000;2022-07-22T11:26:50;1.15;;;0.50;;
56537;SDS011;42435;53.292;6.000;2022-07-22T11:29:39;1.13;;;0.20;;
56537;SDS011;42435;53.292;6.000;2022-07-22T11:32:17;1.73;;;0.30;;
56537;SDS011;42435;53.292;6.000;2022-07-22T11:34:46;2.22;;;0.43;;
56537;SDS011;42435;53.292;6.000;2022-07-22T11:37:21;2.28;;;0.98;;
56537;SDS011;42435;53.292;6.000;2022-07-22T11:39:59;3.28;;;0.63;;
56537;SDS011;42435;53.292;6.000;2022-07-22T11:42:46;1.00;;;0.40;;
56537;SDS011;42435;53.292;6.000;2022-07-22T11:45:36;0.77;;;0.30;;
56537;SDS011;42435;53.292;6.000;2022-07-22T11:48:28;3.42;;;0.43;;
56537;SDS011;42435;53.292;6.000;2022-07-22T11:51:53;1.70;;;0.50;;
56537;SDS011;42435;53.292;6.000;2022-07-22T11:55:01;1.42;;;0.45;;
56537;SDS011;42435;53.292;6.000;2022-07-22T12:08:08;2.67;;;0.80;;
56537;SDS011;42435;53.292;6.000;2022-07-22T12:10:47;0.77;;;0.30;;
56537;SDS011;42435;53.292;6.000;2022-07-22T12:13:17;1.42;;;0.50;;
56537;SDS011;42435;53.292;6.000;2022-07-22T12:15:43;1.10;;;0.30;;
56537;SDS011;42435;53.292;6.000;2022-07-22T12:18:21;2.42;;;0.40;;
56537;SDS011;42435;53.292;6.000;2022-07-22T12:21:05;3.67;;;0.70;;
56537;SDS011;42435;53.292;6.000;2022-07-22T12:30:22;0.50;;;0.32;;
56537;SDS011;42435;53.292;6.000;2022-07-22T12:36:04;2.20;;;0.98;;
56537;SDS011;42435;53.292;6.000;2022-07-22T12:38:39;3.03;;;0.70;;
56537;SDS011;42435;53.292;6.000;2022-07-22T12:44:26;3.55;;;0.70;;
56537;SDS011;42435;53.292;6.000;2022-07-22T12:46:58;2.85;;;0.60;;
56537;SDS011;42435;53.292;6.000;2022-07-22T12:49:41;1.25;;;0.60;;
56537;SDS011;42435;53.292;6.000;2022-07-22T12:52:13;1.60;;;0.47;;
56537;SDS011;42435;53.292;6.000;2022-07-22T12:54:47;1.50;;;0.65;;
56537;SDS011;42435;53.292;6.000;2022-07-22T12:57:18;2.08;;;0.43;;
56537;SDS011;42435;53.292;6.000;2022-07-22T12:59:53;2.08;;;0.57;;
56537;SDS011;42435;53.292;6.000;2022-07-22T13:02:19;3.25;;;0.32;;
56537;SDS011;42435;53.292;6.000;2022-07-22T13:04:44;2.10;;;0.32;;
56537;SDS011;42435;53.292;6.000;2022-07-22T13:07:24;0.70;;;0.38;;
56537;SDS011;42435;53.292;6.000;2022-07-22T13:10:03;1.60;;;0.40;;
56537;SDS011;42435;53.292;6.000;2022-07-22T13:12:30;1.45;;;0.28;;
56537;SDS011;42435;53.292;6.000;2022-07-22T13:15:04;2.75;;;0.30;;
56537;SDS011;42435;53.292;6.000;2022-07-22T13:17:34;0.75;;;0.40;;
56537;SDS011;42435;53.292;6.000;2022-07-22T13:20:07;1.13;;;0.43;;
56537;SDS011;42435;53.292;6.000;2022-07-22T13:22:34;1.30;;;0.40;;
56537;SDS011;42435;53.292;6.000;2022-07-22T13:25:02;0.75;;;0.40;;
56537;SDS011;42435;53.292;6.000;2022-07-22T13:27:34;2.03;;;0.40;;
56537;SDS011;42435;53.292;6.000;2022-07-22T13:30:14;4.63;;;0.47;;
56537;SDS011;42435;53.292;6.000;2022-07-22T13:38:09;0.80;;;0.30;;
56537;SDS011;42435;53.292;6.000;2022-07-22T13:40:41;0.30;;;0.30;;
56537;SDS011;42435;53.292;6.000;2022-07-22T13:43:30;2.60;;;0.35;;
56537;SDS011;42435;53.292;6.000;2022-07-22T13:46:11;1.33;;;0.40;;
56537;SDS011;42435;53.292;6.000;2022-07-22T13:48:40;1.17;;;0.28;;
56537;SDS011;42435;53.292;6.000;2022-07-22T13:51:09;3.10;;;0.50;;
56537;SDS011;42435;53.292;6.000;2022-07-22T13:53:37;2.42;;;0.50;;
56537;SDS011;42435;53.292;6.000;2022-07-22T13:56:38;3.28;;;0.47;;
56537;SDS011;42435;53.292;6.000;2022-07-22T13:59:20;0.75;;;0.52;;
56537;SDS011;42435;53.292;6.000;2022-07-22T14:01:52;1.23;;;0.50;;
56537;SDS011;42435;53.292;6.000;2022-07-22T14:04:18;1.65;;;0.40;;
56537;SDS011;42435;53.292;6.000;2022-07-22T14:06:52;2.35;;;0.30;;
56537;SDS011;42435;53.292;6.000;2022-07-22T14:09:23;2.45;;;0.38;;
56537;SDS011;42435;53.292;6.000;2022-07-22T14:11:49;1.73;;;0.40;;
56537;SDS011;42435;53.292;6.000;2022-07-22T14:14:14;0.90;;;0.40;;
56537;SDS011;42435;53.292;6.000;2022-07-22T14:16:43;1.63;;;0.60;;
56537;SDS011;42435;53.292;6.000;2022-07-22T14:19:12;2.08;;;0.47;;
56537;SDS011;42435;53.292;6.000;2022-07-22T14:21:43;1.02;;;0.50;;
56537;SDS011;42435;53.292;6.000;2022-07-22T14:24:10;0.88;;;0.40;;
56537;SDS011;42435;53.292;6.000;2022-07-22T14:26:41;1.42;;;0.40;;
56537;SDS011;42435;53.292;6.000;2022-07-22T14:29:07;1.40;;;0.60;;
56537;SDS011;42435;53.292;6.000;2022-07-22T14:31:33;3.13;;;0.60;;
56537;SDS011;42435;53.292;6.000;2022-07-22T14:34:02;0.30;;;0.30;;
56537;SDS011;42435;53.292;6.000;2022-07-22T14:36:27;1.52;;;0.20;;
56537;SDS011;42435;53.292;6.000;2022-07-22T14:38:53;0.63;;;0.40;;
56537;SDS011;42435;53.292;6.000;2022-07-22T14:41:21;1.52;;;0.40;;
56537;SDS011;42435;53.292;6.000;2022-07-22T14:43:47;2.05;;;0.52;;
56537;SDS011;42435;53.292;6.000;2022-07-22T14:46:15;0.85;;;0.30;;
56537;SDS011;42435;53.292;6.000;2022-07-22T14:48:41;1.95;;;0.40;;
56537;SDS011;42435;53.292;6.000;2022-07-22T14:51:08;1.58;;;0.45;;
56537;SDS011;42435;53.292;6.000;2022-07-22T14:53:34;2.63;;;0.40;;
56537;SDS011;42435;53.292;6.000;2022-07-22T14:55:59;2.90;;;0.40;;
56537;SDS011;42435;53.292;6.000;2022-07-22T14:58:25;1.10;;;0.38;;
56537;SDS011;42435;53.292;6.000;2022-07-22T15:00:51;2.15;;;0.40;;
56537;SDS011;42435;53.292;6.000;2022-07-22T15:03:16;0.20;;;0.20;;
56537;SDS011;42435;53.292;6.000;2022-07-22T15:05:42;1.38;;;0.43;;
56537;SDS011;42435;53.292;6.000;2022-07-22T15:08:08;1.42;;;0.30;;
56537;SDS011;42435;53.292;6.000;2022-07-22T15:10:33;0.82;;;0.30;;
56537;SDS011;42435;53.292;6.000;2022-07-22T15:13:02;1.05;;;0.40;;
56537;SDS011;42435;53.292;6.000;2022-07-22T15:15:28;2.97;;;0.40;;
56537;SDS011;42435;53.292;6.000;2022-07-22T15:17:57;1.70;;;0.60;;
56537;SDS011;42435;53.292;6.000;2022-07-22T15:20:23;1.58;;;0.40;;
56537;SDS011;42435;53.292;6.000;2022-07-22T15:22:53;0.60;;;0.32;;
56537;SDS011;42435;53.292;6.000;2022-07-22T15:25:22;1.25;;;0.50;;
56537;SDS011;42435;53.292;6.000;2022-07-22T15:27:48;0.70;;;0.30;;
56537;SDS011;42435;53.292;6.000;2022-07-22T15:30:17;0.68;;;0.30;;
56537;SDS011;42435;53.292;6.000;2022-07-22T15:32:45;1.85;;;0.40;;
56537;SDS011;42435;53.292;6.000;2022-07-22T15:35:10;0.68;;;0.30;;
56537;SDS011;42435;53.292;6.000;2022-07-22T15:37:36;0.50;;;0.40;;
56537;SDS011;42435;53.292;6.000;2022-07-22T15:40:03;0.60;;;0.40;;
56537;SDS011;42435;53.292;6.000;2022-07-22T15:42:36;1.48;;;0.50;;
56537;SDS011;42435;53.292;6.000;2022-07-22T15:45:06;1.40;;;0.50;;
56537;SDS011;42435;53.292;6.000;2022-07-22T15:47:32;1.35;;;0.50;;
56537;SDS011;42435;53.292;6.000;2022-07-22T15:50:01;1.15;;;0.35;;
56537;SDS011;42435;53.292;6.000;2022-07-22T15:52:27;4.47;;;0.60;;
56537;SDS011;42435;53.292;6.000;2022-07-22T15:54:55;1.58;;;0.40;;
56537;SDS011;42435;53.292;6.000;2022-07-22T15:57:21;0.43;;;0.28;;
56537;SDS011;42435;53.292;6.000;2022-07-22T16:00:11;0.65;;;0.28;;
56537;SDS011;42435;53.292;6.000;2022-07-22T16:02:40;0.77;;;0.40;;
56537;SDS011;42435;53.292;6.000;2022-07-22T16:05:08;1.77;;;0.57;;
56537;SDS011;42435;53.292;6.000;2022-07-22T16:07:37;0.80;;;0.45;;
56537;SDS011;42435;53.292;6.000;2022-07-22T16:10:03;1.70;;;0.60;;
56537;SDS011;42435;53.292;6.000;2022-07-22T16:12:29;2.20;;;0.50;;
56537;SDS011;42435;53.292;6.000;2022-07-22T16:14:58;1.17;;;0.32;;
56537;SDS011;42435;53.292;6.000;2022-07-22T16:17:23;0.77;;;0.50;;